Terminal Aerodrome Forecast
Issued by NWS Wakefield, VA

Home | Current Version | Previous Version | Text Only | Print | Product List | Glossary On
Versions: 1 2 3 4 5 6 7 8 9 10 11 12 13 14 15 16 17 18 19 20 21 22 23 24 25 26 27 28 29 30 31 32 33 34
000
FTUS41 KAKQ 190416 AAA
TAFRIC
TAF AMD
KRIC 190416Z 1904/1924 18019G28KT P6SM BKN240 OVC300
     FM190900 18010KT P6SM BKN020
     FM191200 18012G20KT 5SM -SHRA OVC020
     FM191700 18016G28KT 6SM -SHRA SCT015 BKN050
     FM192100 18015G25KT 6SM -SHRA BKN020=

USA.gov is the U.S. government's official web portal to all federal, state and local government web resources and services.